Time;durP1;ratioP1;P1;durP2;ratioP2;P2;SDS_P1;SDS_P2;PMS_P1;PMS_P2;Temp;Humidity;BMP_temperature;BMP_pressure;BME280_temperature;BME280_humidity;BME280_pressure;Samples;Min_cycle;Max_cycle;Signal;HPM_P1;HPM_P2
2023/06/19 00:01:58;;;;;;;8.67;6.70;;;;;;;;;;4969449;28;20126;-60
2023/06/19 00:04:24;;;;;;;7.30;6.43;;;;;;;;;;4969823;28;20126;-60
2023/06/19 00:06:50;;;;;;;9.67;6.30;;;;;;;;;;4969736;28;20094;-60
2023/06/19 00:09:17;;;;;;;7.83;6.13;;;;;;;;;;4969177;28;20062;-60
2023/06/19 00:11:43;;;;;;;7.53;6.07;;;;;;;;;;4970196;28;20069;-60
2023/06/19 00:14:09;;;;;;;9.23;6.50;;;;;;;;;;4967762;28;20054;-60
2023/06/19 00:16:35;;;;;;;13.50;6.83;;;;;;;;;;4969989;28;20043;-60
2023/06/19 00:19:03;;;;;;;9.50;6.00;;;;;;;;;;4968797;28;20727;-61
2023/06/19 00:21:29;;;;;;;9.10;6.50;;;;;;;;;;4969647;28;20093;-60
2023/06/19 00:23:55;;;;;;;7.30;6.33;;;;;;;;;;4969461;28;20086;-60
2023/06/19 00:26:22;;;;;;;8.67;6.00;;;;;;;;;;4969010;28;20047;-60
2023/06/19 00:28:49;;;;;;;10.00;6.73;;;;;;;;;;4966362;28;20082;-61
2023/06/19 00:31:16;;;;;;;6.90;6.20;;;;;;;;;;4949548;29;20287;-60
2023/06/19 00:33:42;;;;;;;8.57;7.27;;;;;;;;;;4949966;29;20449;-61
2023/06/19 00:36:11;;;;;;;6.97;6.23;;;;;;;;;;4949936;29;20047;-60
2023/06/19 00:38:38;;;;;;;8.37;6.63;;;;;;;;;;4950206;29;20078;-60
2023/06/19 00:41:04;;;;;;;6.97;6.27;;;;;;;;;;4949767;29;20600;-61
2023/06/19 00:43:30;;;;;;;8.43;6.57;;;;;;;;;;4948901;29;20497;-60
2023/06/19 00:46:00;;;;;;;7.63;6.70;;;;;;;;;;4950147;29;20109;-60
2023/06/19 00:48:30;;;;;;;8.33;6.70;;;;;;;;;;4949778;29;20501;-61
2023/06/19 00:50:57;;;;;;;9.97;6.23;;;;;;;;;;4949733;28;20043;-60
2023/06/19 00:53:23;;;;;;;7.17;6.27;;;;;;;;;;4952408;28;20051;-60
2023/06/19 00:55:51;;;;;;;8.50;6.53;;;;;;;;;;4973122;28;20047;-61
2023/06/19 00:58:18;;;;;;;8.17;7.10;;;;;;;;;;4972442;28;20493;-60
2023/06/19 01:00:44;;;;;;;8.93;6.80;;;;;;;;;;4973072;28;20101;-60
2023/06/19 01:03:10;;;;;;;8.80;6.73;;;;;;;;;;4973157;28;20046;-61
2023/06/19 01:05:36;;;;;;;8.83;6.77;;;;;;;;;;4971741;28;20397;-61
2023/06/19 01:08:34;;;;;;;7.13;6.43;;;;;;;;;;4964755;28;20073;-61
2023/06/19 01:11:01;;;;;;;7.33;6.63;;;;;;;;;;4929892;28;20063;-61
2023/06/19 01:13:30;;;;;;;9.57;6.47;;;;;;;;;;4973067;28;20368;-60
2023/06/19 01:15:56;;;;;;;8.93;6.50;;;;;;;;;;4955751;28;20061;-60
2023/06/19 01:18:22;;;;;;;8.00;6.70;;;;;;;;;;4972741;28;20073;-61
2023/06/19 01:20:49;;;;;;;8.90;7.20;;;;;;;;;;4972171;28;20089;-60
2023/06/19 01:23:15;;;;;;;9.40;7.67;;;;;;;;;;4972398;28;20053;-61
2023/06/19 01:25:41;;;;;;;8.47;6.37;;;;;;;;;;4971898;28;20050;-61
2023/06/19 01:28:09;;;;;;;8.03;7.20;;;;;;;;;;4972495;28;20094;-61
2023/06/19 01:30:35;;;;;;;7.80;7.00;;;;;;;;;;4971900;28;20133;-60
2023/06/19 01:33:09;;;;;;;9.33;6.80;;;;;;;;;;4972615;28;20077;-61
2023/06/19 01:35:36;;;;;;;12.70;8.00;;;;;;;;;;4955185;28;20038;-60
2023/06/19 01:38:02;;;;;;;8.60;6.87;;;;;;;;;;4970523;28;20085;-61
2023/06/19 01:40:31;;;;;;;8.70;6.90;;;;;;;;;;4972433;28;20121;-60
2023/06/19 01:42:59;;;;;;;8.03;7.07;;;;;;;;;;4971562;28;20057;-61
2023/06/19 01:45:25;;;;;;;8.10;6.83;;;;;;;;;;4972551;28;20050;-61
2023/06/19 01:47:51;;;;;;;12.17;7.73;;;;;;;;;;4971643;28;20062;-61
2023/06/19 01:50:17;;;;;;;7.87;6.53;;;;;;;;;;4971960;28;20513;-60
2023/06/19 01:52:43;;;;;;;10.57;7.17;;;;;;;;;;4972080;28;20125;-61
2023/06/19 01:55:09;;;;;;;8.40;7.47;;;;;;;;;;4971481;28;20528;-60
2023/06/19 01:57:36;;;;;;;9.47;7.60;;;;;;;;;;4972005;28;20055;-61
2023/06/19 02:00:02;;;;;;;7.03;6.33;;;;;;;;;;4971941;28;20109;-61
2023/06/19 02:02:28;;;;;;;9.03;7.40;;;;;;;;;;4971953;28;20074;-60
2023/06/19 02:04:54;;;;;;;8.90;6.73;;;;;;;;;;4970520;28;20595;-61
2023/06/19 02:07:20;;;;;;;7.60;6.60;;;;;;;;;;4971081;28;20062;-60
2023/06/19 02:09:46;;;;;;;8.63;6.67;;;;;;;;;;4972203;28;20051;-60
2023/06/19 02:12:12;;;;;;;6.97;6.27;;;;;;;;;;4971908;28;20412;-61
2023/06/19 02:14:38;;;;;;;9.00;6.80;;;;;;;;;;4971802;28;20046;-61
2023/06/19 02:17:04;;;;;;;7.80;6.77;;;;;;;;;;4971112;28;20130;-61
2023/06/19 02:19:30;;;;;;;6.93;6.23;;;;;;;;;;4971438;28;20382;-61
2023/06/19 02:21:56;;;;;;;11.50;6.57;;;;;;;;;;4970764;28;20047;-61
2023/06/19 02:24:22;;;;;;;6.63;5.73;;;;;;;;;;4971610;28;20472;-61
2023/06/19 02:26:48;;;;;;;8.90;6.27;;;;;;;;;;4954149;28;20043;-61
2023/06/19 02:29:14;;;;;;;10.60;6.30;;;;;;;;;;4969899;28;20051;-61
2023/06/19 02:31:42;;;;;;;7.40;5.90;;;;;;;;;;4971595;28;20121;-61
2023/06/19 02:34:08;;;;;;;8.87;6.17;;;;;;;;;;4970640;28;20137;-60
2023/06/19 02:36:35;;;;;;;10.07;6.30;;;;;;;;;;4971537;28;20125;-60
2023/06/19 02:39:01;;;;;;;8.33;6.03;;;;;;;;;;4971279;28;20057;-61
2023/06/19 02:41:27;;;;;;;7.73;6.83;;;;;;;;;;4970846;28;20130;-61
2023/06/19 02:43:53;;;;;;;8.13;5.87;;;;;;;;;;4971465;28;20129;-61
2023/06/19 02:46:19;;;;;;;7.73;6.63;;;;;;;;;;4970932;28;20128;-61
2023/06/19 02:48:45;;;;;;;9.13;6.27;;;;;;;;;;4971391;28;20090;-61
2023/06/19 02:51:11;;;;;;;6.40;5.80;;;;;;;;;;4970905;28;20038;-61
2023/06/19 02:53:37;;;;;;;7.03;6.33;;;;;;;;;;4971541;28;20046;-61
2023/06/19 02:56:03;;;;;;;8.57;5.80;;;;;;;;;;4970501;28;20130;-61
2023/06/19 02:58:30;;;;;;;7.67;6.30;;;;;;;;;;4970937;28;20096;-61
2023/06/19 03:00:55;;;;;;;9.27;6.33;;;;;;;;;;4971117;28;20051;-60
2023/06/19 03:03:22;;;;;;;6.90;6.00;;;;;;;;;;4969755;28;20069;-61
2023/06/19 03:05:48;;;;;;;12.67;7.40;;;;;;;;;;4969875;28;20413;-61
2023/06/19 03:08:14;;;;;;;6.80;6.07;;;;;;;;;;4970854;28;20074;-61
2023/06/19 03:10:40;;;;;;;8.57;5.47;;;;;;;;;;4970545;28;20568;-60
2023/06/19 03:13:06;;;;;;;9.77;5.83;;;;;;;;;;4970885;28;20042;-61
2023/06/19 03:15:32;;;;;;;11.87;6.03;;;;;;;;;;4969703;28;20498;-60
2023/06/19 03:17:59;;;;;;;5.90;5.07;;;;;;;;;;4969285;28;20070;-60
2023/06/19 03:20:25;;;;;;;7.57;6.13;;;;;;;;;;4970379;28;20051;-60
2023/06/19 03:22:51;;;;;;;9.30;5.80;;;;;;;;;;4970441;28;20413;-60
2023/06/19 03:25:19;;;;;;;8.83;6.00;;;;;;;;;;4970218;28;20047;-62
2023/06/19 03:27:45;;;;;;;6.33;5.27;;;;;;;;;;4969935;28;20050;-61
2023/06/19 03:30:12;;;;;;;9.03;5.50;;;;;;;;;;4969875;28;20047;-60
2023/06/19 03:32:38;;;;;;;8.47;5.20;;;;;;;;;;4970236;28;20061;-61
2023/06/19 03:35:08;;;;;;;7.37;5.10;;;;;;;;;;4969146;28;20082;-60
2023/06/19 03:37:34;;;;;;;4.87;3.90;;;;;;;;;;4969629;28;20090;-60
2023/06/19 03:40:00;;;;;;;6.13;3.77;;;;;;;;;;4967801;28;20043;-60
2023/06/19 03:42:26;;;;;;;6.17;3.70;;;;;;;;;;4969992;28;20050;-61
2023/06/19 03:44:52;;;;;;;4.80;3.27;;;;;;;;;;4969486;28;20051;-60
2023/06/19 03:47:18;;;;;;;5.33;3.77;;;;;;;;;;4969459;28;20070;-61
2023/06/19 03:49:44;;;;;;;6.03;3.97;;;;;;;;;;4969809;28;20090;-61
2023/06/19 03:52:10;;;;;;;6.57;4.03;;;;;;;;;;4969678;28;20086;-60
2023/06/19 03:54:36;;;;;;;5.70;3.53;;;;;;;;;;4970139;28;20469;-60
2023/06/19 03:57:02;;;;;;;7.67;3.90;;;;;;;;;;4969712;28;20050;-61
2023/06/19 03:59:28;;;;;;;8.63;3.27;;;;;;;;;;4969237;28;20178;-60
2023/06/19 04:01:54;;;;;;;6.80;3.53;;;;;;;;;;4969721;28;20134;-60
2023/06/19 04:04:20;;;;;;;4.27;3.30;;;;;;;;;;4969449;28;20489;-60
2023/06/19 04:06:46;;;;;;;8.00;3.70;;;;;;;;;;4969089;28;20058;-60
2023/06/19 04:09:12;;;;;;;4.50;3.63;;;;;;;;;;4968153;28;20062;-60
2023/06/19 04:11:38;;;;;;;5.13;3.33;;;;;;;;;;4959676;28;20090;-61
2023/06/19 04:14:04;;;;;;;6.33;3.00;;;;;;;;;;4950269;29;20431;-60
2023/06/19 04:16:30;;;;;;;6.17;3.77;;;;;;;;;;4950373;29;20105;-60
2023/06/19 04:18:56;;;;;;;7.53;3.70;;;;;;;;;;4950155;29;20580;-60
2023/06/19 04:21:22;;;;;;;6.67;3.67;;;;;;;;;;4949595;29;20093;-60
2023/06/19 04:23:48;;;;;;;4.97;3.60;;;;;;;;;;4950182;29;20047;-60
2023/06/19 04:26:14;;;;;;;6.80;3.90;;;;;;;;;;4949068;28;20058;-61
2023/06/19 04:28:41;;;;;;;6.87;3.70;;;;;;;;;;4949947;29;20039;-61
2023/06/19 04:31:07;;;;;;;4.57;3.60;;;;;;;;;;4949836;29;20062;-60
2023/06/19 04:33:34;;;;;;;4.87;3.50;;;;;;;;;;4949970;29;20048;-61
2023/06/19 04:36:00;;;;;;;4.73;3.03;;;;;;;;;;4947691;29;20051;-61
2023/06/19 04:38:26;;;;;;;6.50;4.03;;;;;;;;;;4949830;29;20070;-61
2023/06/19 04:40:52;;;;;;;8.03;3.80;;;;;;;;;;4949224;28;20043;-61
2023/06/19 04:43:18;;;;;;;4.43;3.37;;;;;;;;;;4949719;29;20055;-61
2023/06/19 04:45:44;;;;;;;4.70;3.60;;;;;;;;;;4950095;29;20058;-60
2023/06/19 04:48:11;;;;;;;5.53;3.70;;;;;;;;;;4949916;29;20113;-61
2023/06/19 04:50:37;;;;;;;4.67;3.33;;;;;;;;;;4932258;29;20656;-61
2023/06/19 04:53:03;;;;;;;7.97;3.70;;;;;;;;;;4949809;29;20039;-60
2023/06/19 04:55:30;;;;;;;6.57;4.27;;;;;;;;;;4949502;29;20383;-61
2023/06/19 04:57:56;;;;;;;5.57;3.83;;;;;;;;;;4949703;29;20055;-61
2023/06/19 05:00:23;;;;;;;5.73;3.87;;;;;;;;;;4949661;29;20049;-61
2023/06/19 05:02:49;;;;;;;5.37;4.00;;;;;;;;;;4949366;29;20106;-61
2023/06/19 05:05:16;;;;;;;4.13;3.53;;;;;;;;;;4949835;29;20055;-61
2023/06/19 05:07:42;;;;;;;7.00;4.33;;;;;;;;;;4949395;28;20521;-61
2023/06/19 05:10:08;;;;;;;7.73;4.10;;;;;;;;;;4948053;29;20062;-62
2023/06/19 05:12:37;;;;;;;5.50;4.50;;;;;;;;;;4949403;29;20052;-61
2023/06/19 05:15:03;;;;;;;6.50;3.93;;;;;;;;;;4949641;29;20074;-61
2023/06/19 05:17:29;;;;;;;7.93;5.27;;;;;;;;;;4949984;29;20622;-61
2023/06/19 05:19:55;;;;;;;5.40;4.00;;;;;;;;;;4949755;29;20122;-61
2023/06/19 05:22:23;;;;;;;8.63;4.47;;;;;;;;;;4949309;29;20493;-61
2023/06/19 05:24:49;;;;;;;5.63;3.57;;;;;;;;;;4949249;29;20134;-61
2023/06/19 05:27:15;;;;;;;6.93;4.30;;;;;;;;;;4949450;29;20191;-61
2023/06/19 05:29:41;;;;;;;7.73;4.27;;;;;;;;;;4947557;29;20069;-61
2023/06/19 05:32:07;;;;;;;4.63;3.40;;;;;;;;;;4948505;29;20047;-61
2023/06/19 05:34:33;;;;;;;6.63;4.40;;;;;;;;;;4949721;29;20053;-61
2023/06/19 05:37:00;;;;;;;5.57;4.13;;;;;;;;;;4947673;29;20060;-61
2023/06/19 05:39:26;;;;;;;6.67;4.10;;;;;;;;;;4952044;29;20143;-61
2023/06/19 05:41:52;;;;;;;6.17;3.87;;;;;;;;;;4953242;29;20055;-61
2023/06/19 05:44:18;;;;;;;4.93;4.33;;;;;;;;;;4952896;29;20118;-61
2023/06/19 05:46:44;;;;;;;4.53;3.80;;;;;;;;;;4952786;29;20055;-62
2023/06/19 05:49:10;;;;;;;4.27;3.60;;;;;;;;;;4952334;29;20469;-61
2023/06/19 05:51:37;;;;;;;6.67;4.10;;;;;;;;;;4952697;29;20054;-61
2023/06/19 05:54:03;;;;;;;4.60;3.80;;;;;;;;;;4952684;29;20097;-61
2023/06/19 05:56:32;;;;;;;5.63;4.30;;;;;;;;;;4952625;29;20172;-61
2023/06/19 05:58:59;;;;;;;5.23;3.90;;;;;;;;;;4950884;29;20110;-61
2023/06/19 06:01:29;;;;;;;4.90;4.30;;;;;;;;;;4950124;29;20146;-61
2023/06/19 06:03:55;;;;;;;6.20;4.60;;;;;;;;;;4952555;29;20047;-61
2023/06/19 06:06:21;;;;;;;9.50;4.67;;;;;;;;;;4951018;29;20082;-61
2023/06/19 06:08:47;;;;;;;6.13;5.40;;;;;;;;;;4967038;28;20097;-61
2023/06/19 06:11:13;;;;;;;7.03;4.73;;;;;;;;;;4971506;28;20090;-61
2023/06/19 06:13:39;;;;;;;7.37;5.20;;;;;;;;;;4972297;28;20057;-61
2023/06/19 06:16:05;;;;;;;8.67;6.03;;;;;;;;;;4971856;28;20440;-61
2023/06/19 06:18:31;;;;;;;7.10;6.40;;;;;;;;;;4965799;28;20105;-61
2023/06/19 06:20:59;;;;;;;8.33;6.83;;;;;;;;;;4952177;29;20074;-61
2023/06/19 06:23:25;;;;;;;13.23;7.97;;;;;;;;;;4952091;29;20062;-61
2023/06/19 06:25:51;;;;;;;11.00;7.73;;;;;;;;;;4952000;29;20106;-61
2023/06/19 06:28:17;;;;;;;11.60;8.87;;;;;;;;;;4951003;29;20417;-61
2023/06/19 06:30:43;;;;;;;11.33;7.80;;;;;;;;;;4951571;29;20047;-61
2023/06/19 06:33:09;;;;;;;10.07;8.00;;;;;;;;;;4952110;29;20079;-61
2023/06/19 06:35:35;;;;;;;9.17;8.03;;;;;;;;;;4951589;29;20051;-61
2023/06/19 06:38:02;;;;;;;7.83;7.03;;;;;;;;;;4952156;29;20058;-61
2023/06/19 06:40:28;;;;;;;10.50;8.20;;;;;;;;;;4952089;29;20043;-61
2023/06/19 06:42:54;;;;;;;8.50;7.67;;;;;;;;;;4951318;29;20475;-61
2023/06/19 06:45:20;;;;;;;9.03;7.43;;;;;;;;;;4951704;29;20453;-61
2023/06/19 06:47:46;;;;;;;8.67;7.77;;;;;;;;;;4951696;29;20055;-61
2023/06/19 06:50:12;;;;;;;10.73;8.00;;;;;;;;;;4948174;28;20047;-61
2023/06/19 06:52:38;;;;;;;8.63;7.33;;;;;;;;;;4934610;29;20413;-61
2023/06/19 06:55:05;;;;;;;9.03;7.00;;;;;;;;;;4951835;28;20097;-61
2023/06/19 06:57:31;;;;;;;8.17;6.57;;;;;;;;;;4951018;28;20142;-61
2023/06/19 06:59:57;;;;;;;8.90;6.70;;;;;;;;;;4951060;28;20062;-61
2023/06/19 07:02:23;;;;;;;8.17;6.50;;;;;;;;;;4951549;28;20414;-61
2023/06/19 07:04:49;;;;;;;8.20;6.60;;;;;;;;;;4951598;28;20055;-61
2023/06/19 07:07:15;;;;;;;7.93;6.53;;;;;;;;;;4951010;28;20556;-61
2023/06/19 07:09:41;;;;;;;10.80;6.87;;;;;;;;;;4949314;29;20062;-61
2023/06/19 07:12:07;;;;;;;7.23;6.53;;;;;;;;;;4951132;29;20055;-61
2023/06/19 07:14:33;;;;;;;6.83;5.77;;;;;;;;;;4949764;29;20071;-61
2023/06/19 07:16:59;;;;;;;8.70;5.90;;;;;;;;;;4951094;29;20039;-62
2023/06/19 07:19:25;;;;;;;7.10;6.40;;;;;;;;;;4951155;29;20059;-62
2023/06/19 07:21:51;;;;;;;12.37;6.67;;;;;;;;;;4951024;29;20040;-62
2023/06/19 07:24:17;;;;;;;9.43;6.33;;;;;;;;;;4950612;29;20154;-62
2023/06/19 07:26:43;;;;;;;7.17;5.50;;;;;;;;;;4950846;29;20055;-62
2023/06/19 07:29:09;;;;;;;6.20;5.60;;;;;;;;;;4950978;29;20062;-62
2023/06/19 07:31:35;;;;;;;7.93;5.03;;;;;;;;;;4950752;29;20409;-62
2023/06/19 07:34:02;;;;;;;4.57;4.17;;;;;;;;;;4950625;29;20059;-62
2023/06/19 07:36:28;;;;;;;7.00;6.30;;;;;;;;;;4951082;29;20047;-62
2023/06/19 07:38:55;;;;;;;5.93;5.27;;;;;;;;;;4950505;29;20047;-61
2023/06/19 07:41:21;;;;;;;7.43;6.63;;;;;;;;;;4950497;29;20058;-62
2023/06/19 07:43:47;;;;;;;9.00;8.20;;;;;;;;;;4948830;29;20039;-61
2023/06/19 07:46:15;;;;;;;9.33;8.43;;;;;;;;;;4949479;29;20050;-62
2023/06/19 07:48:41;;;;;;;8.13;7.33;;;;;;;;;;4948200;29;20050;-61
2023/06/19 07:51:07;;;;;;;10.37;7.73;;;;;;;;;;4948919;29;20039;-62
2023/06/19 07:53:33;;;;;;;11.93;9.43;;;;;;;;;;4949777;29;20401;-61
2023/06/19 07:55:59;;;;;;;10.10;9.10;;;;;;;;;;4950155;29;20051;-62
2023/06/19 07:58:25;;;;;;;10.30;9.23;;;;;;;;;;4947125;29;20458;-61
2023/06/19 08:00:51;;;;;;;11.93;10.20;;;;;;;;;;4949387;28;20050;-62
2023/06/19 08:03:16;;;;;;;10.50;9.53;;;;;;;;;;4949867;29;20048;-61
2023/06/19 08:05:43;;;;;;;9.63;8.77;;;;;;;;;;4949232;29;20043;-62
2023/06/19 08:08:09;;;;;;;8.33;7.33;;;;;;;;;;4949442;28;20055;-62
2023/06/19 08:10:34;;;;;;;8.30;7.50;;;;;;;;;;4949855;29;20047;-61
2023/06/19 08:13:00;;;;;;;8.77;7.87;;;;;;;;;;4949003;29;20047;-62
2023/06/19 08:15:26;;;;;;;11.00;9.90;;;;;;;;;;4949545;29;20047;-61
2023/06/19 08:17:52;;;;;;;10.47;9.47;;;;;;;;;;4949409;29;20430;-61
2023/06/19 08:20:19;;;;;;;12.83;9.87;;;;;;;;;;4949488;29;20047;-62
2023/06/19 08:22:45;;;;;;;10.63;9.63;;;;;;;;;;4948888;29;20059;-61
2023/06/19 08:25:11;;;;;;;11.23;10.13;;;;;;;;;;4948896;29;20112;-62
2023/06/19 08:27:37;;;;;;;11.43;10.33;;;;;;;;;;4949407;29;20110;-61
2023/06/19 08:30:04;;;;;;;10.40;9.47;;;;;;;;;;4949331;29;20102;-62
2023/06/19 08:32:30;;;;;;;9.70;8.47;;;;;;;;;;4949076;29;20047;-62
2023/06/19 08:34:56;;;;;;;11.03;8.47;;;;;;;;;;4948856;29;20055;-62
2023/06/19 08:37:22;;;;;;;6.93;6.23;;;;;;;;;;4949261;29;20051;-61
2023/06/19 08:39:48;;;;;;;7.53;6.60;;;;;;;;;;4948882;29;20525;-62
2023/06/19 08:42:14;;;;;;;6.73;6.00;;;;;;;;;;4948359;29;20047;-62
2023/06/19 08:44:40;;;;;;;9.53;6.20;;;;;;;;;;4949418;29;20077;-61
2023/06/19 08:47:06;;;;;;;8.97;6.43;;;;;;;;;;4949257;29;20628;-62
2023/06/19 08:49:35;;;;;;;6.77;5.80;;;;;;;;;;4949253;29;20102;-62
2023/06/19 08:52:02;;;;;;;7.43;5.27;;;;;;;;;;4949598;29;20082;-62
2023/06/19 08:54:28;;;;;;;6.17;5.20;;;;;;;;;;4949102;29;20089;-62
2023/06/19 08:56:54;;;;;;;7.90;5.90;;;;;;;;;;4949720;29;20051;-62
2023/06/19 08:59:21;;;;;;;7.13;5.70;;;;;;;;;;4949431;29;20053;-61
2023/06/19 09:01:53;;;;;;;8.40;6.67;;;;;;;;;;4949633;29;20093;-61
2023/06/19 09:04:20;;;;;;;7.30;4.85;;;;;;;;;;4949270;29;20071;-62
2023/06/19 09:06:54;;;;;;;9.37;5.50;;;;;;;;;;4949919;29;20105;-62
2023/06/19 09:09:21;;;;;;;6.77;4.70;;;;;;;;;;4949569;29;20051;-62
2023/06/19 09:12:06;;;;;;;6.70;5.40;;;;;;;;;;4949655;28;20053;-62
2023/06/19 09:14:35;;;;;;;5.87;5.20;;;;;;;;;;4953150;29;20117;-61
2023/06/19 09:17:02;;;;;;;7.60;5.67;;;;;;;;;;4953323;29;20090;-62
2023/06/19 09:19:28;;;;;;;7.80;5.03;;;;;;;;;;4952717;29;20132;-62
2023/06/19 09:22:00;;;;;;;6.97;5.57;;;;;;;;;;4953070;29;20398;-62
2023/06/19 09:24:33;;;;;;;7.63;6.13;;;;;;;;;;4953021;29;20054;-62
2023/06/19 09:27:13;;;;;;;7.80;5.73;;;;;;;;;;4952692;29;20047;-62
2023/06/19 09:29:42;;;;;;;7.77;6.17;;;;;;;;;;4953042;29;20081;-62
2023/06/19 09:32:19;;;;;;;7.40;6.07;;;;;;;;;;4952775;29;20082;-62
2023/06/19 09:34:45;;;;;;;9.47;7.20;;;;;;;;;;4952538;29;20047;-62
2023/06/19 09:37:11;;;;;;;12.00;7.00;;;;;;;;;;4952853;29;20082;-61
2023/06/19 09:39:37;;;;;;;9.10;6.87;;;;;;;;;;4952459;29;20047;-62
2023/06/19 09:42:06;;;;;;;11.87;8.60;;;;;;;;;;4952480;29;20047;-62
2023/06/19 09:44:36;;;;;;;9.97;7.70;;;;;;;;;;4952978;29;20074;-62
2023/06/19 09:47:02;;;;;;;10.00;6.80;;;;;;;;;;4952133;29;20416;-62
2023/06/19 09:49:29;;;;;;;9.23;7.10;;;;;;;;;;4952695;29;20051;-62
2023/06/19 09:51:55;;;;;;;10.30;8.20;;;;;;;;;;4952537;29;20043;-62
2023/06/19 09:54:21;;;;;;;10.63;8.30;;;;;;;;;;4952249;29;20105;-62
2023/06/19 09:56:50;;;;;;;9.80;7.63;;;;;;;;;;4952122;29;20099;-62
2023/06/19 09:59:18;;;;;;;12.43;9.53;;;;;;;;;;4952209;29;20055;-62
2023/06/19 10:01:45;;;;;;;15.23;9.90;;;;;;;;;;4952206;29;20405;-62
2023/06/19 10:04:13;;;;;;;12.93;9.23;;;;;;;;;;4951859;29;20047;-62
2023/06/19 10:06:46;;;;;;;13.43;9.50;;;;;;;;;;4952621;29;20047;-62
2023/06/19 10:09:14;;;;;;;9.93;8.07;;;;;;;;;;4952173;29;20087;-62
2023/06/19 10:11:53;;;;;;;11.73;7.37;;;;;;;;;;4952408;29;20043;-62
2023/06/19 10:14:24;;;;;;;8.73;6.47;;;;;;;;;;4951238;29;20078;-62
2023/06/19 10:16:50;;;;;;;8.60;6.20;;;;;;;;;;4952371;29;20047;-62
2023/06/19 10:19:17;;;;;;;7.23;5.70;;;;;;;;;;4951577;29;20043;-62
2023/06/19 10:21:47;;;;;;;8.35;6.63;;;;;;;;;;4952109;29;20039;-62
2023/06/19 10:24:19;;;;;;;8.70;6.80;;;;;;;;;;4951767;28;20102;-62
2023/06/19 10:26:55;;;;;;;7.28;6.13;;;;;;;;;;4950092;28;20075;-62
2023/06/19 10:29:21;;;;;;;12.85;6.65;;;;;;;;;;4942531;29;20581;-62
2023/06/19 10:31:47;;;;;;;7.28;6.32;;;;;;;;;;4952049;29;20478;-62
2023/06/19 10:34:13;;;;;;;6.87;4.77;;;;;;;;;;4951894;29;20066;-62
2023/06/19 10:36:39;;;;;;;7.60;5.95;;;;;;;;;;4952227;28;20137;-62
2023/06/19 10:39:06;;;;;;;11.48;6.40;;;;;;;;;;4952389;29;20059;-62
2023/06/19 10:41:33;;;;;;;12.05;5.95;;;;;;;;;;4951965;29;20090;-62
2023/06/19 10:44:03;;;;;;;8.88;6.30;;;;;;;;;;4951238;29;20055;-62
2023/06/19 10:46:36;;;;;;;8.35;6.47;;;;;;;;;;4949787;29;20529;-63
2023/06/19 10:49:04;;;;;;;;;;;;;;;;;;4952226;29;20044;-62
2023/06/19 10:51:30;;;;;;;7.95;7.00;;;;;;;;;;4951230;29;19933;-62
2023/06/19 10:53:56;;;;;;;7.95;7.10;;;;;;;;;;4952056;29;20121;-62
2023/06/19 10:56:23;;;;;;;9.00;7.25;;;;;;;;;;4951740;29;20470;-62
2023/06/19 10:58:49;;;;;;;11.40;7.20;;;;;;;;;;4951004;29;20043;-62
2023/06/19 11:01:15;;;;;;;10.43;7.78;;;;;;;;;;4951343;29;20046;-63
2023/06/19 11:03:41;;;;;;;11.35;7.03;;;;;;;;;;4951392;29;20533;-62
2023/06/19 11:06:07;;;;;;;8.52;7.00;;;;;;;;;;4950381;29;20053;-62
2023/06/19 11:08:34;;;;;;;8.30;7.20;;;;;;;;;;4961093;28;20625;-62
2023/06/19 11:11:00;;;;;;;8.93;8.10;;;;;;;;;;4970723;28;20051;-62
2023/06/19 11:13:26;;;;;;;11.38;7.47;;;;;;;;;;4970835;28;20061;-62
2023/06/19 11:15:52;;;;;;;9.63;7.70;;;;;;;;;;4970481;28;20611;-62
2023/06/19 11:18:19;;;;;;;9.60;6.60;;;;;;;;;;4969049;28;20107;-62
2023/06/19 11:20:52;;;;;;;9.57;6.65;;;;;;;;;;4950202;29;20046;-62
2023/06/19 11:23:25;;;;;;;10.27;6.40;;;;;;;;;;4949689;29;20051;-62
2023/06/19 11:25:51;;;;;;;10.10;8.10;;;;;;;;;;4947757;28;20528;-62
2023/06/19 11:28:17;;;;;;;8.77;7.75;;;;;;;;;;4951118;29;20142;-62
2023/06/19 11:30:44;;;;;;;10.30;8.02;;;;;;;;;;4950892;29;20706;-62
2023/06/19 11:33:23;;;;;;;8.73;7.82;;;;;;;;;;4950723;29;20039;-62
2023/06/19 11:35:50;;;;;;;10.85;8.32;;;;;;;;;;4962691;28;20061;-63
2023/06/19 11:38:17;;;;;;;9.98;8.55;;;;;;;;;;4970026;28;20587;-63
2023/06/19 11:40:45;;;;;;;15.25;10.63;;;;;;;;;;4967406;28;20410;-63
2023/06/19 11:43:11;;;;;;;10.02;8.90;;;;;;;;;;4969832;28;20046;-63
2023/06/19 11:45:49;;;;;;;9.75;8.75;;;;;;;;;;4960974;28;20050;-63
2023/06/19 11:48:21;;;;;;;12.88;10.70;;;;;;;;;;4950544;29;20130;-63
2023/06/19 11:50:47;;;;;;;;;;;;;;;;;;4950845;29;20066;-63
2023/06/19 11:53:13;;;;;;;13.50;9.73;;;;;;;;;;4950303;29;20380;-63
2023/06/19 11:55:39;;;;;;;12.60;10.07;;;;;;;;;;4950298;29;20051;-63
2023/06/19 11:58:05;;;;;;;12.10;10.57;;;;;;;;;;4950758;29;20596;-63
2023/06/19 12:00:31;;;;;;;10.55;9.10;;;;;;;;;;4952741;28;20125;-63
2023/06/19 12:02:58;;;;;;;10.90;9.80;;;;;;;;;;4969208;28;20054;-63
2023/06/19 12:05:24;;;;;;;10.25;9.20;;;;;;;;;;4969927;28;21042;-63
2023/06/19 12:07:51;;;;;;;11.18;10.07;;;;;;;;;;4969316;28;20046;-63
2023/06/19 12:10:17;;;;;;;13.40;10.27;;;;;;;;;;4952423;28;20054;-63
2023/06/19 12:12:42;;;;;;;11.10;10.00;;;;;;;;;;4958467;28;20044;-63
2023/06/19 12:15:09;;;;;;;11.32;9.55;;;;;;;;;;4950141;29;20043;-63
2023/06/19 12:17:35;;;;;;;11.23;10.13;;;;;;;;;;4931607;29;20407;-63
2023/06/19 12:20:02;;;;;;;14.63;8.90;;;;;;;;;;4968157;28;20050;-63
2023/06/19 12:22:28;;;;;;;11.18;10.02;;;;;;;;;;4969211;28;20125;-63
2023/06/19 12:24:54;;;;;;;14.70;10.00;;;;;;;;;;4962066;28;20509;-63
2023/06/19 12:27:23;;;;;;;12.32;10.02;;;;;;;;;;4947213;28;20421;-63
2023/06/19 12:29:49;;;;;;;10.15;8.18;;;;;;;;;;4952024;28;20050;-63
2023/06/19 12:32:15;;;;;;;10.95;9.82;;;;;;;;;;4959524;28;20564;-63
2023/06/19 12:34:46;;;;;;;11.15;10.15;;;;;;;;;;4949008;29;20047;-63
2023/06/19 12:37:13;;;;;;;11.10;9.02;;;;;;;;;;4952197;28;20059;-63
2023/06/19 12:39:39;;;;;;;12.48;10.98;;;;;;;;;;4950144;28;20467;-63
2023/06/19 12:42:05;;;;;;;12.23;9.88;;;;;;;;;;4949800;28;20133;-64
2023/06/19 12:44:31;;;;;;;13.40;11.45;;;;;;;;;;4949496;28;20051;-63
2023/06/19 12:46:58;;;;;;;11.18;9.32;;;;;;;;;;4951221;28;20054;-63
2023/06/19 12:49:24;;;;;;;11.25;10.05;;;;;;;;;;4953741;29;20528;-63
2023/06/19 12:51:51;;;;;;;10.32;9.23;;;;;;;;;;4953993;28;20070;-63
2023/06/19 12:54:17;;;;;;;10.38;9.38;;;;;;;;;;4952363;28;20125;-64
2023/06/19 12:56:43;;;;;;;10.88;9.77;;;;;;;;;;4972871;28;21208;-64
2023/06/19 12:59:10;;;;;;;13.05;9.60;;;;;;;;;;4966290;28;20078;-63
2023/06/19 13:01:36;;;;;;;11.10;9.15;;;;;;;;;;4953697;29;20106;-64
2023/06/19 13:04:02;;;;;;;12.52;9.88;;;;;;;;;;4951985;29;20125;-64
2023/06/19 13:06:28;;;;;;;10.75;9.02;;;;;;;;;;4952346;29;20047;-64
2023/06/19 13:08:54;;;;;;;12.68;8.55;;;;;;;;;;4951933;29;20059;-64
2023/06/19 13:11:20;;;;;;;11.25;9.25;;;;;;;;;;4952243;29;20130;-64
2023/06/19 13:13:46;;;;;;;11.90;9.55;;;;;;;;;;4953710;29;20039;-64
2023/06/19 13:16:12;;;;;;;11.18;9.55;;;;;;;;;;4952978;29;20055;-64
2023/06/19 13:18:38;;;;;;;9.48;8.57;;;;;;;;;;4954070;29;20083;-64
2023/06/19 13:21:04;;;;;;;9.43;8.30;;;;;;;;;;4953714;29;20047;-64
2023/06/19 13:23:30;;;;;;;9.07;8.13;;;;;;;;;;4951802;29;20094;-64
2023/06/19 13:25:57;;;;;;;10.52;9.52;;;;;;;;;;4952059;29;20892;-63
2023/06/19 13:28:23;;;;;;;10.25;8.77;;;;;;;;;;4951897;29;20047;-64
2023/06/19 13:30:50;;;;;;;11.98;8.88;;;;;;;;;;4953291;29;20047;-64
2023/06/19 13:33:16;;;;;;;11.90;9.95;;;;;;;;;;4952022;29;20043;-64
2023/06/19 13:35:42;;;;;;;12.60;9.95;;;;;;;;;;4949980;29;20085;-64
2023/06/19 13:38:09;;;;;;;10.88;8.77;;;;;;;;;;4953088;29;20180;-64
2023/06/19 13:40:35;;;;;;;9.75;7.47;;;;;;;;;;4951684;29;20053;-64
2023/06/19 13:43:03;;;;;;;9.85;8.88;;;;;;;;;;4951642;29;20047;-64
2023/06/19 13:45:30;;;;;;;12.45;9.52;;;;;;;;;;4953051;29;20110;-64
2023/06/19 13:47:57;;;;;;;8.23;7.10;;;;;;;;;;4952627;29;20062;-64
2023/06/19 13:50:23;;;;;;;11.50;8.18;;;;;;;;;;4951901;29;20466;-64
2023/06/19 13:52:50;;;;;;;9.48;7.47;;;;;;;;;;4953027;29;20071;-64
2023/06/19 13:55:16;;;;;;;10.68;6.78;;;;;;;;;;4952831;29;20049;-63
2023/06/19 13:57:43;;;;;;;7.95;6.75;;;;;;;;;;4952300;29;20091;-64
2023/06/19 14:00:10;;;;;;;7.82;6.45;;;;;;;;;;4950892;28;20059;-64
2023/06/19 14:02:37;;;;;;;7.43;5.22;;;;;;;;;;4942706;29;20046;-64
2023/06/19 14:05:04;;;;;;;6.50;5.03;;;;;;;;;;4932856;29;20043;-64
2023/06/19 14:07:30;;;;;;;7.10;4.90;;;;;;;;;;4951230;28;20059;-64
2023/06/19 14:09:56;;;;;;;7.45;4.85;;;;;;;;;;4965198;28;20118;-64
2023/06/19 14:12:22;;;;;;;5.72;4.70;;;;;;;;;;4959425;28;20126;-64
2023/06/19 14:14:48;;;;;;;6.88;4.90;;;;;;;;;;4968481;28;20047;-63
2023/06/19 14:17:14;;;;;;;5.97;3.95;;;;;;;;;;4972052;28;20062;-64
2023/06/19 14:19:40;;;;;;;7.68;4.03;;;;;;;;;;4955801;28;20519;-62
2023/06/19 14:22:06;;;;;;;5.10;3.88;;;;;;;;;;4951993;28;20089;-62
2023/06/19 14:24:32;;;;;;;5.35;4.60;;;;;;;;;;4952261;29;20067;-62
2023/06/19 14:26:58;;;;;;;4.95;4.13;;;;;;;;;;4948332;28;20047;-62
2023/06/19 14:29:24;;;;;;;5.43;4.35;;;;;;;;;;4954546;28;20051;-62
2023/06/19 14:31:53;;;;;;;5.75;4.65;;;;;;;;;;4969710;28;20117;-62
2023/06/19 14:34:20;;;;;;;4.65;3.80;;;;;;;;;;4970058;28;20046;-62
2023/06/19 14:36:46;;;;;;;4.32;3.80;;;;;;;;;;4971473;28;20089;-62